sensor_id;sensor_type;location;lat;lon;timestamp;P1;durP1;ratioP1;P2;durP2;ratioP2
15218;SDS011;15623;53.986;11.676;2022-12-18T00:02:27;84.27;;;27.47;;
15218;SDS011;15623;53.986;11.676;2022-12-18T00:04:54;89.87;;;29.43;;
15218;SDS011;15623;53.986;11.676;2022-12-18T00:07:22;86.60;;;28.37;;
15218;SDS011;15623;53.986;11.676;2022-12-18T00:09:49;80.07;;;27.00;;
15218;SDS011;15623;53.986;11.676;2022-12-18T00:12:17;78.63;;;26.63;;
15218;SDS011;15623;53.986;11.676;2022-12-18T00:14:44;86.27;;;29.10;;
15218;SDS011;15623;53.986;11.676;2022-12-18T00:17:13;85.10;;;27.50;;
15218;SDS011;15623;53.986;11.676;2022-12-18T00:19:40;78.20;;;27.50;;
15218;SDS011;15623;53.986;11.676;2022-12-18T00:22:08;78.70;;;28.10;;
15218;SDS011;15623;53.986;11.676;2022-12-18T00:24:35;83.23;;;27.43;;
15218;SDS011;15623;53.986;11.676;2022-12-18T00:27:02;81.97;;;27.40;;
15218;SDS011;15623;53.986;11.676;2022-12-18T00:29:30;79.47;;;24.47;;
15218;SDS011;15623;53.986;11.676;2022-12-18T00:31:57;80.73;;;27.03;;
15218;SDS011;15623;53.986;11.676;2022-12-18T00:34:26;84.73;;;27.27;;
15218;SDS011;15623;53.986;11.676;2022-12-18T00:36:54;79.90;;;25.13;;
15218;SDS011;15623;53.986;11.676;2022-12-18T00:39:21;69.87;;;23.10;;
15218;SDS011;15623;53.986;11.676;2022-12-18T00:41:48;68.40;;;23.77;;
15218;SDS011;15623;53.986;11.676;2022-12-18T00:44:33;79.00;;;25.67;;
15218;SDS011;15623;53.986;11.676;2022-12-18T00:47:01;76.83;;;25.70;;
15218;SDS011;15623;53.986;11.676;2022-12-18T00:49:30;73.10;;;22.33;;
15218;SDS011;15623;53.986;11.676;2022-12-18T00:51:57;73.37;;;25.03;;
15218;SDS011;15623;53.986;11.676;2022-12-18T00:54:24;81.90;;;25.23;;
15218;SDS011;15623;53.986;11.676;2022-12-18T00:56:52;76.13;;;23.93;;
15218;SDS011;15623;53.986;11.676;2022-12-18T00:59:20;83.63;;;25.13;;
15218;SDS011;15623;53.986;11.676;2022-12-18T01:01:47;74.20;;;24.33;;
15218;SDS011;15623;53.986;11.676;2022-12-18T01:04:15;74.37;;;24.50;;
15218;SDS011;15623;53.986;11.676;2022-12-18T01:06:44;74.97;;;24.67;;
15218;SDS011;15623;53.986;11.676;2022-12-18T01:09:11;73.73;;;24.20;;
15218;SDS011;15623;53.986;11.676;2022-12-18T01:11:39;76.07;;;24.70;;
15218;SDS011;15623;53.986;11.676;2022-12-18T01:14:06;77.93;;;25.27;;
15218;SDS011;15623;53.986;11.676;2022-12-18T01:16:34;84.50;;;25.13;;
15218;SDS011;15623;53.986;11.676;2022-12-18T01:19:01;76.37;;;24.63;;
15218;SDS011;15623;53.986;11.676;2022-12-18T01:21:28;77.03;;;25.13;;
15218;SDS011;15623;53.986;11.676;2022-12-18T01:23:57;78.43;;;24.70;;
15218;SDS011;15623;53.986;11.676;2022-12-18T01:26:25;83.07;;;25.37;;
15218;SDS011;15623;53.986;11.676;2022-12-18T01:28:54;73.87;;;23.73;;
15218;SDS011;15623;53.986;11.676;2022-12-18T01:31:23;70.57;;;22.80;;
15218;SDS011;15623;53.986;11.676;2022-12-18T01:33:51;73.60;;;24.40;;
15218;SDS011;15623;53.986;11.676;2022-12-18T01:36:20;75.27;;;23.53;;
15218;SDS011;15623;53.986;11.676;2022-12-18T01:38:47;68.17;;;23.23;;
15218;SDS011;15623;53.986;11.676;2022-12-18T01:41:17;73.60;;;24.07;;
15218;SDS011;15623;53.986;11.676;2022-12-18T01:43:47;78.90;;;24.60;;
15218;SDS011;15623;53.986;11.676;2022-12-18T01:46:15;72.97;;;24.37;;
15218;SDS011;15623;53.986;11.676;2022-12-18T01:48:43;72.20;;;24.37;;
15218;SDS011;15623;53.986;11.676;2022-12-18T01:51:11;72.53;;;23.63;;
15218;SDS011;15623;53.986;11.676;2022-12-18T01:53:40;69.67;;;24.63;;
15218;SDS011;15623;53.986;11.676;2022-12-18T01:56:08;77.23;;;25.03;;
15218;SDS011;15623;53.986;11.676;2022-12-18T01:58:41;76.13;;;25.43;;
15218;SDS011;15623;53.986;11.676;2022-12-18T02:01:11;68.83;;;24.03;;
15218;SDS011;15623;53.986;11.676;2022-12-18T02:03:40;69.43;;;22.10;;
15218;SDS011;15623;53.986;11.676;2022-12-18T02:06:11;76.57;;;23.50;;
15218;SDS011;15623;53.986;11.676;2022-12-18T02:08:41;66.60;;;22.03;;
15218;SDS011;15623;53.986;11.676;2022-12-18T02:11:12;67.77;;;23.13;;
15218;SDS011;15623;53.986;11.676;2022-12-18T02:13:43;81.17;;;23.47;;
15218;SDS011;15623;53.986;11.676;2022-12-18T02:16:15;68.20;;;22.03;;
15218;SDS011;15623;53.986;11.676;2022-12-18T02:18:47;66.60;;;23.50;;
15218;SDS011;15623;53.986;11.676;2022-12-18T02:21:20;64.73;;;21.60;;
15218;SDS011;15623;53.986;11.676;2022-12-18T02:23:52;67.20;;;22.33;;
15218;SDS011;15623;53.986;11.676;2022-12-18T02:26:26;66.83;;;23.47;;
15218;SDS011;15623;53.986;11.676;2022-12-18T02:28:55;68.10;;;21.93;;
15218;SDS011;15623;53.986;11.676;2022-12-18T02:31:25;68.20;;;22.73;;
15218;SDS011;15623;53.986;11.676;2022-12-18T02:33:54;64.90;;;22.40;;
15218;SDS011;15623;53.986;11.676;2022-12-18T02:36:21;68.17;;;21.93;;
15218;SDS011;15623;53.986;11.676;2022-12-18T02:38:50;62.53;;;21.27;;
15218;SDS011;15623;53.986;11.676;2022-12-18T02:41:19;66.00;;;21.90;;
15218;SDS011;15623;53.986;11.676;2022-12-18T02:43:48;63.00;;;21.73;;
15218;SDS011;15623;53.986;11.676;2022-12-18T02:46:27;63.77;;;20.27;;
15218;SDS011;15623;53.986;11.676;2022-12-18T02:48:57;62.30;;;19.80;;
15218;SDS011;15623;53.986;11.676;2022-12-18T02:51:29;61.03;;;19.90;;
15218;SDS011;15623;53.986;11.676;2022-12-18T02:53:58;67.60;;;21.93;;
15218;SDS011;15623;53.986;11.676;2022-12-18T02:56:30;63.93;;;20.50;;
15218;SDS011;15623;53.986;11.676;2022-12-18T02:59:04;66.20;;;21.23;;
15218;SDS011;15623;53.986;11.676;2022-12-18T03:01:34;51.13;;;19.30;;
15218;SDS011;15623;53.986;11.676;2022-12-18T03:04:04;61.77;;;20.43;;
15218;SDS011;15623;53.986;11.676;2022-12-18T03:06:33;56.13;;;20.30;;
15218;SDS011;15623;53.986;11.676;2022-12-18T03:09:04;61.60;;;21.70;;
15218;SDS011;15623;53.986;11.676;2022-12-18T03:11:33;62.50;;;20.10;;
15218;SDS011;15623;53.986;11.676;2022-12-18T03:14:20;56.53;;;19.90;;
15218;SDS011;15623;53.986;11.676;2022-12-18T03:16:48;65.73;;;20.33;;
15218;SDS011;15623;53.986;11.676;2022-12-18T03:19:17;64.27;;;21.37;;
15218;SDS011;15623;53.986;11.676;2022-12-18T03:21:47;53.73;;;18.77;;
15218;SDS011;15623;53.986;11.676;2022-12-18T03:24:16;56.83;;;19.17;;
15218;SDS011;15623;53.986;11.676;2022-12-18T03:26:44;54.87;;;18.33;;
15218;SDS011;15623;53.986;11.676;2022-12-18T03:29:14;57.80;;;18.57;;
15218;SDS011;15623;53.986;11.676;2022-12-18T03:31:45;49.47;;;18.40;;
15218;SDS011;15623;53.986;11.676;2022-12-18T03:34:15;54.20;;;18.43;;
15218;SDS011;15623;53.986;11.676;2022-12-18T03:36:44;50.77;;;18.10;;
15218;SDS011;15623;53.986;11.676;2022-12-18T03:39:12;51.93;;;18.27;;
15218;SDS011;15623;53.986;11.676;2022-12-18T03:41:41;64.97;;;19.93;;
15218;SDS011;15623;53.986;11.676;2022-12-18T03:44:11;52.10;;;17.87;;
15218;SDS011;15623;53.986;11.676;2022-12-18T03:46:40;51.57;;;17.57;;
15218;SDS011;15623;53.986;11.676;2022-12-18T03:49:12;53.97;;;17.40;;
15218;SDS011;15623;53.986;11.676;2022-12-18T03:51:42;47.50;;;17.53;;
15218;SDS011;15623;53.986;11.676;2022-12-18T03:54:12;48.17;;;17.90;;
15218;SDS011;15623;53.986;11.676;2022-12-18T03:56:42;57.27;;;18.90;;
15218;SDS011;15623;53.986;11.676;2022-12-18T03:59:12;45.47;;;17.60;;
15218;SDS011;15623;53.986;11.676;2022-12-18T04:01:40;51.97;;;16.80;;
15218;SDS011;15623;53.986;11.676;2022-12-18T04:04:09;55.77;;;17.77;;
15218;SDS011;15623;53.986;11.676;2022-12-18T04:06:39;48.20;;;18.30;;
15218;SDS011;15623;53.986;11.676;2022-12-18T04:09:07;50.57;;;17.23;;
15218;SDS011;15623;53.986;11.676;2022-12-18T04:11:35;51.50;;;17.80;;
15218;SDS011;15623;53.986;11.676;2022-12-18T04:14:02;51.60;;;17.63;;
15218;SDS011;15623;53.986;11.676;2022-12-18T04:16:30;46.23;;;16.73;;
15218;SDS011;15623;53.986;11.676;2022-12-18T04:18:58;54.13;;;16.93;;
15218;SDS011;15623;53.986;11.676;2022-12-18T04:21:25;51.10;;;16.40;;
15218;SDS011;15623;53.986;11.676;2022-12-18T04:23:54;42.63;;;16.33;;
15218;SDS011;15623;53.986;11.676;2022-12-18T04:26:22;56.27;;;17.80;;
15218;SDS011;15623;53.986;11.676;2022-12-18T04:28:49;44.73;;;16.67;;
15218;SDS011;15623;53.986;11.676;2022-12-18T04:31:17;47.90;;;17.17;;
15218;SDS011;15623;53.986;11.676;2022-12-18T04:33:44;48.67;;;16.37;;
15218;SDS011;15623;53.986;11.676;2022-12-18T04:36:11;43.00;;;16.20;;
15218;SDS011;15623;53.986;11.676;2022-12-18T04:38:39;51.43;;;16.87;;
15218;SDS011;15623;53.986;11.676;2022-12-18T04:41:08;49.57;;;17.33;;
15218;SDS011;15623;53.986;11.676;2022-12-18T04:43:35;45.80;;;15.50;;
15218;SDS011;15623;53.986;11.676;2022-12-18T04:46:03;48.80;;;17.37;;
15218;SDS011;15623;53.986;11.676;2022-12-18T04:48:30;52.17;;;17.27;;
15218;SDS011;15623;53.986;11.676;2022-12-18T04:50:58;45.13;;;15.67;;
15218;SDS011;15623;53.986;11.676;2022-12-18T04:53:26;48.20;;;16.13;;
15218;SDS011;15623;53.986;11.676;2022-12-18T04:56:01;41.93;;;15.83;;
15218;SDS011;15623;53.986;11.676;2022-12-18T04:58:30;51.40;;;17.87;;
15218;SDS011;15623;53.986;11.676;2022-12-18T05:00:58;46.00;;;17.23;;
15218;SDS011;15623;53.986;11.676;2022-12-18T05:03:25;42.83;;;16.40;;
15218;SDS011;15623;53.986;11.676;2022-12-18T05:05:52;42.57;;;16.43;;
15218;SDS011;15623;53.986;11.676;2022-12-18T05:08:20;49.30;;;17.30;;
15218;SDS011;15623;53.986;11.676;2022-12-18T05:10:47;50.87;;;16.67;;
15218;SDS011;15623;53.986;11.676;2022-12-18T05:13:15;47.10;;;15.77;;
15218;SDS011;15623;53.986;11.676;2022-12-18T05:15:50;52.93;;;16.87;;
15218;SDS011;15623;53.986;11.676;2022-12-18T05:18:18;43.97;;;15.00;;
15218;SDS011;15623;53.986;11.676;2022-12-18T05:20:45;46.10;;;15.90;;
15218;SDS011;15623;53.986;11.676;2022-12-18T05:23:13;46.07;;;16.50;;
15218;SDS011;15623;53.986;11.676;2022-12-18T05:25:41;42.13;;;15.73;;
15218;SDS011;15623;53.986;11.676;2022-12-18T05:28:08;46.33;;;16.40;;
15218;SDS011;15623;53.986;11.676;2022-12-18T05:30:36;46.03;;;16.33;;
15218;SDS011;15623;53.986;11.676;2022-12-18T05:33:05;41.83;;;15.00;;
15218;SDS011;15623;53.986;11.676;2022-12-18T05:35:32;45.70;;;15.93;;
15218;SDS011;15623;53.986;11.676;2022-12-18T05:37:59;39.30;;;15.40;;
15218;SDS011;15623;53.986;11.676;2022-12-18T05:40:27;44.37;;;15.97;;
15218;SDS011;15623;53.986;11.676;2022-12-18T05:42:54;40.60;;;15.87;;
15218;SDS011;15623;53.986;11.676;2022-12-18T05:45:22;43.90;;;15.33;;
15218;SDS011;15623;53.986;11.676;2022-12-18T05:47:49;42.53;;;14.60;;
15218;SDS011;15623;53.986;11.676;2022-12-18T05:50:18;41.30;;;15.13;;
15218;SDS011;15623;53.986;11.676;2022-12-18T05:52:46;41.77;;;15.07;;
15218;SDS011;15623;53.986;11.676;2022-12-18T05:55:13;40.67;;;15.53;;
15218;SDS011;15623;53.986;11.676;2022-12-18T05:57:41;41.40;;;14.97;;
15218;SDS011;15623;53.986;11.676;2022-12-18T06:00:09;41.87;;;14.97;;
15218;SDS011;15623;53.986;11.676;2022-12-18T06:02:37;43.30;;;15.23;;
15218;SDS011;15623;53.986;11.676;2022-12-18T06:05:05;40.90;;;15.63;;
15218;SDS011;15623;53.986;11.676;2022-12-18T06:07:34;40.63;;;14.50;;
15218;SDS011;15623;53.986;11.676;2022-12-18T06:10:02;45.50;;;15.77;;
15218;SDS011;15623;53.986;11.676;2022-12-18T06:12:29;47.00;;;15.60;;
15218;SDS011;15623;53.986;11.676;2022-12-18T06:14:58;40.17;;;15.37;;
15218;SDS011;15623;53.986;11.676;2022-12-18T06:17:27;39.90;;;14.37;;
15218;SDS011;15623;53.986;11.676;2022-12-18T06:19:55;45.87;;;15.40;;
15218;SDS011;15623;53.986;11.676;2022-12-18T06:22:22;42.63;;;15.87;;
15218;SDS011;15623;53.986;11.676;2022-12-18T06:24:51;42.23;;;15.30;;
15218;SDS011;15623;53.986;11.676;2022-12-18T06:27:19;37.23;;;13.83;;
15218;SDS011;15623;53.986;11.676;2022-12-18T06:29:46;50.23;;;15.87;;
15218;SDS011;15623;53.986;11.676;2022-12-18T06:32:14;46.77;;;15.30;;
15218;SDS011;15623;53.986;11.676;2022-12-18T06:34:41;49.83;;;15.57;;
15218;SDS011;15623;53.986;11.676;2022-12-18T06:37:09;42.73;;;14.03;;
15218;SDS011;15623;53.986;11.676;2022-12-18T06:39:36;42.93;;;15.43;;
15218;SDS011;15623;53.986;11.676;2022-12-18T06:42:05;39.00;;;14.43;;
15218;SDS011;15623;53.986;11.676;2022-12-18T06:44:33;49.37;;;15.60;;
15218;SDS011;15623;53.986;11.676;2022-12-18T06:47:00;41.33;;;14.30;;
15218;SDS011;15623;53.986;11.676;2022-12-18T06:49:28;41.83;;;14.93;;
15218;SDS011;15623;53.986;11.676;2022-12-18T06:51:55;39.10;;;14.97;;
15218;SDS011;15623;53.986;11.676;2022-12-18T06:54:23;41.40;;;14.63;;
15218;SDS011;15623;53.986;11.676;2022-12-18T06:56:50;44.10;;;15.50;;
15218;SDS011;15623;53.986;11.676;2022-12-18T06:59:20;43.43;;;15.53;;
15218;SDS011;15623;53.986;11.676;2022-12-18T07:01:47;42.13;;;14.40;;
15218;SDS011;15623;53.986;11.676;2022-12-18T07:04:15;41.07;;;14.90;;
15218;SDS011;15623;53.986;11.676;2022-12-18T07:06:42;37.23;;;14.27;;
15218;SDS011;15623;53.986;11.676;2022-12-18T07:09:09;41.47;;;15.50;;
15218;SDS011;15623;53.986;11.676;2022-12-18T07:11:37;42.47;;;14.90;;
15218;SDS011;15623;53.986;11.676;2022-12-18T07:14:05;42.60;;;14.77;;
15218;SDS011;15623;53.986;11.676;2022-12-18T07:16:34;39.70;;;14.37;;
15218;SDS011;15623;53.986;11.676;2022-12-18T07:19:01;47.57;;;16.73;;
15218;SDS011;15623;53.986;11.676;2022-12-18T07:21:28;34.73;;;14.10;;
15218;SDS011;15623;53.986;11.676;2022-12-18T07:23:57;41.80;;;14.57;;
15218;SDS011;15623;53.986;11.676;2022-12-18T07:26:25;42.40;;;15.23;;
15218;SDS011;15623;53.986;11.676;2022-12-18T07:28:54;44.40;;;14.67;;
15218;SDS011;15623;53.986;11.676;2022-12-18T07:31:22;37.70;;;14.43;;
15218;SDS011;15623;53.986;11.676;2022-12-18T07:33:52;42.37;;;14.80;;
15218;SDS011;15623;53.986;11.676;2022-12-18T07:36:19;44.30;;;14.50;;
15218;SDS011;15623;53.986;11.676;2022-12-18T07:38:47;34.07;;;14.13;;
15218;SDS011;15623;53.986;11.676;2022-12-18T07:41:14;37.53;;;13.97;;
15218;SDS011;15623;53.986;11.676;2022-12-18T07:43:43;39.30;;;14.40;;
15218;SDS011;15623;53.986;11.676;2022-12-18T07:46:11;36.27;;;14.10;;
15218;SDS011;15623;53.986;11.676;2022-12-18T07:48:39;38.63;;;14.13;;
15218;SDS011;15623;53.986;11.676;2022-12-18T07:51:11;40.27;;;15.07;;
15218;SDS011;15623;53.986;11.676;2022-12-18T07:53:38;38.83;;;15.27;;
15218;SDS011;15623;53.986;11.676;2022-12-18T07:56:07;42.33;;;14.37;;
15218;SDS011;15623;53.986;11.676;2022-12-18T07:58:35;43.57;;;14.40;;
15218;SDS011;15623;53.986;11.676;2022-12-18T08:01:03;40.57;;;14.93;;
15218;SDS011;15623;53.986;11.676;2022-12-18T08:03:31;34.17;;;13.83;;
15218;SDS011;15623;53.986;11.676;2022-12-18T08:05:59;35.73;;;14.37;;
15218;SDS011;15623;53.986;11.676;2022-12-18T08:08:29;34.50;;;13.63;;
15218;SDS011;15623;53.986;11.676;2022-12-18T08:10:58;33.53;;;14.97;;
15218;SDS011;15623;53.986;11.676;2022-12-18T08:13:25;31.43;;;13.30;;
15218;SDS011;15623;53.986;11.676;2022-12-18T08:15:56;26.83;;;12.63;;
15218;SDS011;15623;53.986;11.676;2022-12-18T08:18:24;24.23;;;11.73;;
15218;SDS011;15623;53.986;11.676;2022-12-18T08:20:51;27.63;;;13.03;;
15218;SDS011;15623;53.986;11.676;2022-12-18T08:23:19;28.57;;;12.53;;
15218;SDS011;15623;53.986;11.676;2022-12-18T08:25:48;26.33;;;12.47;;
15218;SDS011;15623;53.986;11.676;2022-12-18T08:28:16;27.90;;;11.43;;
15218;SDS011;15623;53.986;11.676;2022-12-18T08:30:44;24.17;;;11.70;;
15218;SDS011;15623;53.986;11.676;2022-12-18T08:33:11;24.17;;;11.57;;
15218;SDS011;15623;53.986;11.676;2022-12-18T08:35:39;25.20;;;12.40;;
15218;SDS011;15623;53.986;11.676;2022-12-18T08:38:07;23.27;;;11.57;;
15218;SDS011;15623;53.986;11.676;2022-12-18T08:40:34;27.10;;;12.30;;
15218;SDS011;15623;53.986;11.676;2022-12-18T08:43:03;24.97;;;12.13;;
15218;SDS011;15623;53.986;11.676;2022-12-18T08:45:48;23.97;;;12.47;;
15218;SDS011;15623;53.986;11.676;2022-12-18T08:48:16;23.57;;;11.80;;
15218;SDS011;15623;53.986;11.676;2022-12-18T08:50:43;25.30;;;11.83;;
15218;SDS011;15623;53.986;11.676;2022-12-18T08:53:11;26.87;;;12.10;;
15218;SDS011;15623;53.986;11.676;2022-12-18T08:55:38;20.10;;;11.37;;
15218;SDS011;15623;53.986;11.676;2022-12-18T08:58:08;20.80;;;11.90;;
15218;SDS011;15623;53.986;11.676;2022-12-18T09:00:36;21.73;;;10.97;;
15218;SDS011;15623;53.986;11.676;2022-12-18T09:03:03;22.13;;;12.13;;
15218;SDS011;15623;53.986;11.676;2022-12-18T09:05:31;22.00;;;11.80;;
15218;SDS011;15623;53.986;11.676;2022-12-18T09:07:58;24.33;;;12.13;;
15218;SDS011;15623;53.986;11.676;2022-12-18T09:10:26;22.77;;;12.23;;
15218;SDS011;15623;53.986;11.676;2022-12-18T09:12:53;23.40;;;11.73;;
15218;SDS011;15623;53.986;11.676;2022-12-18T09:15:23;22.87;;;12.27;;
15218;SDS011;15623;53.986;11.676;2022-12-18T09:17:50;18.90;;;11.50;;
15218;SDS011;15623;53.986;11.676;2022-12-18T09:20:19;20.67;;;11.07;;
15218;SDS011;15623;53.986;11.676;2022-12-18T09:22:46;19.83;;;11.70;;
15218;SDS011;15623;53.986;11.676;2022-12-18T09:25:14;23.67;;;12.47;;
15218;SDS011;15623;53.986;11.676;2022-12-18T09:27:41;19.43;;;11.70;;
15218;SDS011;15623;53.986;11.676;2022-12-18T09:30:09;20.37;;;11.60;;
15218;SDS011;15623;53.986;11.676;2022-12-18T09:32:39;25.50;;;12.90;;
15218;SDS011;15623;53.986;11.676;2022-12-18T09:35:06;23.47;;;12.53;;
15218;SDS011;15623;53.986;11.676;2022-12-18T09:37:34;22.40;;;11.77;;
15218;SDS011;15623;53.986;11.676;2022-12-18T09:40:02;21.23;;;12.57;;
15218;SDS011;15623;53.986;11.676;2022-12-18T09:42:29;24.00;;;12.20;;
15218;SDS011;15623;53.986;11.676;2022-12-18T09:44:57;20.97;;;11.37;;
15218;SDS011;15623;53.986;11.676;2022-12-18T09:47:27;21.60;;;11.70;;
15218;SDS011;15623;53.986;11.676;2022-12-18T09:49:58;21.23;;;12.17;;
15218;SDS011;15623;53.986;11.676;2022-12-18T09:52:27;22.07;;;12.03;;
15218;SDS011;15623;53.986;11.676;2022-12-18T09:54:58;22.57;;;11.37;;
15218;SDS011;15623;53.986;11.676;2022-12-18T09:57:28;21.40;;;11.77;;
15218;SDS011;15623;53.986;11.676;2022-12-18T09:59:58;21.50;;;12.00;;
15218;SDS011;15623;53.986;11.676;2022-12-18T10:02:29;19.27;;;11.67;;
15218;SDS011;15623;53.986;11.676;2022-12-18T10:05:04;21.30;;;11.77;;
15218;SDS011;15623;53.986;11.676;2022-12-18T10:07:35;23.03;;;12.27;;
15218;SDS011;15623;53.986;11.676;2022-12-18T10:10:06;23.20;;;12.90;;
15218;SDS011;15623;53.986;11.676;2022-12-18T10:12:36;22.77;;;12.13;;
15218;SDS011;15623;53.986;11.676;2022-12-18T10:15:06;22.27;;;12.07;;
15218;SDS011;15623;53.986;11.676;2022-12-18T10:17:39;21.80;;;11.37;;
15218;SDS011;15623;53.986;11.676;2022-12-18T10:20:12;24.50;;;12.73;;
15218;SDS011;15623;53.986;11.676;2022-12-18T10:22:43;23.47;;;12.47;;
15218;SDS011;15623;53.986;11.676;2022-12-18T10:25:16;23.10;;;12.30;;
15218;SDS011;15623;53.986;11.676;2022-12-18T10:27:45;22.50;;;11.70;;
15218;SDS011;15623;53.986;11.676;2022-12-18T10:30:14;23.43;;;13.27;;
15218;SDS011;15623;53.986;11.676;2022-12-18T10:32:42;22.83;;;12.33;;
15218;SDS011;15623;53.986;11.676;2022-12-18T10:35:15;22.47;;;12.27;;
15218;SDS011;15623;53.986;11.676;2022-12-18T10:37:58;21.73;;;11.60;;
15218;SDS011;15623;53.986;11.676;2022-12-18T10:40:27;23.63;;;12.53;;
15218;SDS011;15623;53.986;11.676;2022-12-18T10:43:05;21.17;;;12.00;;
15218;SDS011;15623;53.986;11.676;2022-12-18T10:45:33;22.27;;;12.00;;
15218;SDS011;15623;53.986;11.676;2022-12-18T10:48:00;22.67;;;12.67;;
15218;SDS011;15623;53.986;11.676;2022-12-18T10:50:30;23.60;;;12.43;;
15218;SDS011;15623;53.986;11.676;2022-12-18T10:52:59;22.37;;;12.87;;
15218;SDS011;15623;53.986;11.676;2022-12-18T10:55:30;23.93;;;12.63;;
15218;SDS011;15623;53.986;11.676;2022-12-18T10:58:12;23.73;;;13.30;;
15218;SDS011;15623;53.986;11.676;2022-12-18T11:00:40;23.47;;;12.83;;
15218;SDS011;15623;53.986;11.676;2022-12-18T11:03:14;24.27;;;12.83;;
15218;SDS011;15623;53.986;11.676;2022-12-18T11:06:02;21.47;;;12.70;;
15218;SDS011;15623;53.986;11.676;2022-12-18T11:08:30;25.03;;;13.53;;
15218;SDS011;15623;53.986;11.676;2022-12-18T11:10:58;24.93;;;13.07;;
15218;SDS011;15623;53.986;11.676;2022-12-18T11:13:26;25.47;;;13.57;;
15218;SDS011;15623;53.986;11.676;2022-12-18T11:15:54;25.63;;;13.27;;
15218;SDS011;15623;53.986;11.676;2022-12-18T11:18:24;26.73;;;14.20;;
15218;SDS011;15623;53.986;11.676;2022-12-18T11:20:52;25.17;;;13.87;;
15218;SDS011;15623;53.986;11.676;2022-12-18T11:23:22;30.67;;;14.37;;
15218;SDS011;15623;53.986;11.676;2022-12-18T11:25:50;29.47;;;13.77;;
15218;SDS011;15623;53.986;11.676;2022-12-18T11:28:25;34.33;;;16.50;;
15218;SDS011;15623;53.986;11.676;2022-12-18T11:31:08;29.33;;;13.80;;
15218;SDS011;15623;53.986;11.676;2022-12-18T11:33:37;31.87;;;15.20;;
15218;SDS011;15623;53.986;11.676;2022-12-18T11:36:07;30.07;;;14.00;;
15218;SDS011;15623;53.986;11.676;2022-12-18T11:38:37;28.10;;;14.20;;
15218;SDS011;15623;53.986;11.676;2022-12-18T11:41:07;31.20;;;14.33;;
15218;SDS011;15623;53.986;11.676;2022-12-18T11:43:40;29.07;;;13.97;;
15218;SDS011;15623;53.986;11.676;2022-12-18T11:46:10;27.07;;;14.33;;
15218;SDS011;15623;53.986;11.676;2022-12-18T11:48:40;28.77;;;13.43;;
15218;SDS011;15623;53.986;11.676;2022-12-18T11:51:09;26.13;;;13.07;;
15218;SDS011;15623;53.986;11.676;2022-12-18T11:53:40;29.37;;;14.00;;
15218;SDS011;15623;53.986;11.676;2022-12-18T11:56:13;30.40;;;14.50;;
15218;SDS011;15623;53.986;11.676;2022-12-18T11:58:46;30.23;;;13.20;;
15218;SDS011;15623;53.986;11.676;2022-12-18T12:01:23;31.00;;;14.77;;
15218;SDS011;15623;53.986;11.676;2022-12-18T12:04:00;27.63;;;15.03;;
15218;SDS011;15623;53.986;11.676;2022-12-18T12:06:31;25.57;;;12.73;;
15218;SDS011;15623;53.986;11.676;2022-12-18T12:09:07;31.30;;;14.30;;
15218;SDS011;15623;53.986;11.676;2022-12-18T12:11:40;26.57;;;13.07;;
15218;SDS011;15623;53.986;11.676;2022-12-18T12:14:25;30.33;;;14.37;;
15218;SDS011;15623;53.986;11.676;2022-12-18T12:16:57;26.47;;;13.00;;
15218;SDS011;15623;53.986;11.676;2022-12-18T12:19:36;28.17;;;13.73;;
15218;SDS011;15623;53.986;11.676;2022-12-18T12:22:07;26.53;;;12.57;;
15218;SDS011;15623;53.986;11.676;2022-12-18T12:24:42;31.30;;;14.70;;
15218;SDS011;15623;53.986;11.676;2022-12-18T12:27:15;29.03;;;13.97;;
15218;SDS011;15623;53.986;11.676;2022-12-18T12:29:47;30.67;;;14.33;;
15218;SDS011;15623;53.986;11.676;2022-12-18T12:32:22;32.90;;;15.13;;
15218;SDS011;15623;53.986;11.676;2022-12-18T12:34:55;32.70;;;14.10;;
15218;SDS011;15623;53.986;11.676;2022-12-18T12:37:29;29.03;;;12.77;;
15218;SDS011;15623;53.986;11.676;2022-12-18T12:40:02;29.47;;;13.63;;
15218;SDS011;15623;53.986;11.676;2022-12-18T12:42:31;32.13;;;14.27;;
15218;SDS011;15623;53.986;11.676;2022-12-18T12:45:18;31.00;;;14.00;;
15218;SDS011;15623;53.986;11.676;2022-12-18T12:47:47;33.90;;;13.37;;
15218;SDS011;15623;53.986;11.676;2022-12-18T12:50:16;35.90;;;16.03;;
15218;SDS011;15623;53.986;11.676;2022-12-18T12:52:45;34.97;;;15.07;;
15218;SDS011;15623;53.986;11.676;2022-12-18T12:55:16;34.43;;;14.70;;
15218;SDS011;15623;53.986;11.676;2022-12-18T12:57:45;37.43;;;15.03;;
15218;SDS011;15623;53.986;11.676;2022-12-18T13:00:14;37.10;;;15.60;;
15218;SDS011;15623;53.986;11.676;2022-12-18T13:02:43;38.63;;;15.03;;
15218;SDS011;15623;53.986;11.676;2022-12-18T13:05:16;36.87;;;15.83;;
15218;SDS011;15623;53.986;11.676;2022-12-18T13:07:47;38.57;;;14.33;;
15218;SDS011;15623;53.986;11.676;2022-12-18T13:10:25;36.33;;;15.67;;
15218;SDS011;15623;53.986;11.676;2022-12-18T13:12:54;32.57;;;14.63;;
15218;SDS011;15623;53.986;11.676;2022-12-18T13:15:22;33.43;;;14.80;;
15218;SDS011;15623;53.986;11.676;2022-12-18T13:18:02;42.47;;;15.33;;
15218;SDS011;15623;53.986;11.676;2022-12-18T13:20:32;36.00;;;14.90;;
15218;SDS011;15623;53.986;11.676;2022-12-18T13:23:01;37.37;;;15.87;;
15218;SDS011;15623;53.986;11.676;2022-12-18T13:25:32;37.27;;;16.27;;
15218;SDS011;15623;53.986;11.676;2022-12-18T13:28:00;40.13;;;16.33;;
15218;SDS011;15623;53.986;11.676;2022-12-18T13:30:42;37.97;;;16.30;;
15218;SDS011;15623;53.986;11.676;2022-12-18T13:36:00;41.50;;;16.37;;
15218;SDS011;15623;53.986;11.676;2022-12-18T13:38:32;38.83;;;16.20;;
15218;SDS011;15623;53.986;11.676;2022-12-18T13:41:02;39.27;;;16.20;;
15218;SDS011;15623;53.986;11.676;2022-12-18T13:43:31;39.83;;;16.57;;
15218;SDS011;15623;53.986;11.676;2022-12-18T13:46:00;40.43;;;16.73;;
15218;SDS011;15623;53.986;11.676;2022-12-18T13:48:29;43.40;;;17.07;;
15218;SDS011;15623;53.986;11.676;2022-12-18T13:50:59;43.23;;;17.33;;
15218;SDS011;15623;53.986;11.676;2022-12-18T13:53:29;44.20;;;17.27;;
15218;SDS011;15623;53.986;11.676;2022-12-18T13:55:58;40.57;;;17.63;;
15218;SDS011;15623;53.986;11.676;2022-12-18T13:58:27;36.73;;;15.73;;
15218;SDS011;15623;53.986;11.676;2022-12-18T14:00:54;41.67;;;17.90;;
15218;SDS011;15623;53.986;11.676;2022-12-18T14:03:25;43.53;;;18.23;;
15218;SDS011;15623;53.986;11.676;2022-12-18T14:05:54;39.60;;;16.70;;
15218;SDS011;15623;53.986;11.676;2022-12-18T14:08:22;39.87;;;17.33;;
15218;SDS011;15623;53.986;11.676;2022-12-18T14:10:51;39.80;;;16.67;;
15218;SDS011;15623;53.986;11.676;2022-12-18T14:13:20;43.53;;;18.40;;
15218;SDS011;15623;53.986;11.676;2022-12-18T14:15:50;44.67;;;18.83;;
15218;SDS011;15623;53.986;11.676;2022-12-18T14:18:19;43.10;;;17.70;;
15218;SDS011;15623;53.986;11.676;2022-12-18T14:20:48;43.30;;;18.93;;
15218;SDS011;15623;53.986;11.676;2022-12-18T14:23:26;42.73;;;17.77;;
15218;SDS011;15623;53.986;11.676;2022-12-18T14:25:54;64.53;;;27.63;;